Time;durP1;ratioP1;P1;durP2;ratioP2;P2;SDS_P1;SDS_P2;PMS_P1;PMS_P2;Temp;Humidity;BMP_temperature;BMP_pressure;BME280_temperature;BME280_humidity;BME280_pressure;Samples;Min_cycle;Max_cycle;Signal;HPM_P1;HPM_P2
2022/10/31 00:00:22;;;;;;;0.50;0.40;;;;;;;1.98;56.70;98274.16;6046135;23;20022;-78
2022/10/31 00:02:48;;;;;;;0.68;0.40;;;;;;;2.07;56.17;98283.56;6078932;23;20490;-79
2022/10/31 00:05:14;;;;;;;1.83;0.90;;;;;;;2.06;56.10;98282.72;6095822;23;20076;-79
2022/10/31 00:07:40;;;;;;;0.98;0.68;;;;;;;2.11;56.15;98303.25;6095733;23;20018;-79
2022/10/31 00:10:07;;;;;;;1.08;0.55;;;;;;;2.05;55.74;98298.97;6070406;23;20022;-78
2022/10/31 00:12:34;;;;;;;1.48;0.60;;;;;;;2.13;56.28;98306.69;6070088;23;20026;-78
2022/10/31 00:15:00;;;;;;;1.63;0.40;;;;;;;2.14;56.00;98297.25;6047449;23;20026;-80
2022/10/31 00:17:26;;;;;;;1.60;0.57;;;;;;;2.21;55.83;98293.84;6070259;23;20429;-79
2022/10/31 00:19:52;;;;;;;0.73;0.43;;;;;;;2.26;55.83;98297.28;6070793;23;20018;-79
2022/10/31 00:22:18;;;;;;;2.88;0.60;;;;;;;2.20;55.47;98263.91;6070731;23;20026;-81
2022/10/31 00:24:44;;;;;;;0.90;0.43;;;;;;;2.35;55.71;98286.16;6046242;23;20077;-77
2022/10/31 00:27:10;;;;;;;3.70;0.50;;;;;;;2.34;55.13;98281.88;6097064;23;20029;-79
2022/10/31 00:29:36;;;;;;;0.98;0.50;;;;;;;2.32;55.12;98269.03;6072096;23;20094;-79
2022/10/31 00:32:03;;;;;;;3.95;0.60;;;;;;;2.35;55.30;98265.63;6072518;23;20368;-79
2022/10/31 00:34:30;;;;;;;0.73;0.52;;;;;;;2.27;55.26;98252.78;6073406;23;20042;-79
2022/10/31 00:37:01;;;;;;;0.93;0.50;;;;;;;2.54;54.86;98279.28;6097622;23;20130;-79
2022/10/31 00:39:27;;;;;;;0.55;0.40;;;;;;;2.48;54.84;98266.47;6071604;23;20022;-78
2022/10/31 00:41:53;;;;;;;0.38;0.38;;;;;;;2.33;54.98;98244.22;6072149;23;20014;-79
2022/10/31 00:44:19;;;;;;;0.55;0.52;;;;;;;2.46;54.43;98261.31;6048104;23;20089;-78
2022/10/31 00:46:45;;;;;;;0.43;0.40;;;;;;;2.46;54.21;98258.75;6071762;23;20101;-80
2022/10/31 00:49:12;;;;;;;0.47;0.47;;;;;;;2.44;54.48;98268.16;6048435;23;20015;-78
2022/10/31 00:51:38;;;;;;;0.73;0.38;;;;;;;2.23;54.52;98236.50;6048008;23;20022;-78
2022/10/31 00:54:06;;;;;;;1.08;0.40;;;;;;;2.47;54.29;98277.59;6097306;23;20022;-80
2022/10/31 00:56:31;;;;;;;0.32;0.32;;;;;;;2.41;54.28;98271.59;6047812;23;20022;-79
2022/10/31 00:58:59;;;;;;;0.50;0.30;;;;;;;2.39;54.30;98267.34;6071464;23;20022;-80
2022/10/31 01:01:24;;;;;;;1.42;0.40;;;;;;;2.38;54.28;98269.03;6071697;23;20491;-78
2022/10/31 01:03:51;;;;;;;0.70;0.38;;;;;;;2.18;53.88;98224.53;6047817;23;20020;-79
2022/10/31 01:06:17;;;;;;;1.45;0.40;;;;;;;2.19;54.37;98221.13;6047143;23;20026;-78
2022/10/31 01:08:43;;;;;;;0.52;0.20;;;;;;;2.46;54.44;98256.19;6072160;23;20356;-79
2022/10/31 01:11:22;;;;;;;0.82;0.40;;;;;;;2.51;53.77;98269.03;6071779;23;20460;-79
2022/10/31 01:13:51;;;;;;;0.77;0.40;;;;;;;2.26;53.53;98225.41;6079832;23;20030;-81
2022/10/31 01:16:20;;;;;;;0.85;0.30;;;;;;;2.23;53.48;98215.13;6049716;23;20022;-79
2022/10/31 01:18:46;;;;;;;1.10;0.40;;;;;;;2.56;53.93;98270.75;6071574;23;20448;-78
2022/10/31 01:21:15;;;;;;;1.17;0.40;;;;;;;2.56;53.62;98257.03;6097220;23;20022;-80
2022/10/31 01:23:42;;;;;;;0.63;0.40;;;;;;;2.56;53.42;98257.03;6096716;23;20025;-78
2022/10/31 01:26:19;;;;;;;6.65;0.52;;;;;;;2.60;53.41;98265.59;6096625;23;20025;-78
2022/10/31 01:28:45;;;;;;;1.48;0.30;;;;;;;2.58;53.18;98268.16;6048058;23;20097;-79
2022/10/31 01:31:11;;;;;;;1.10;0.30;;;;;;;2.35;53.45;98230.50;6072375;23;20475;-79
2022/10/31 01:33:38;;;;;;;0.43;0.40;;;;;;;2.35;53.40;98232.25;6048923;23;20026;-79
2022/10/31 01:36:25;;;;;;;2.25;0.50;;;;;;;2.54;53.24;98266.44;6072736;23;20022;-80
2022/10/31 01:38:55;;;;;;;0.70;0.38;;;;;;;2.43;53.12;98240.78;6073357;23;20022;-78
2022/10/31 01:41:24;;;;;;;0.63;0.30;;;;;;;2.51;53.33;98267.31;6109130;23;20018;-79
2022/10/31 01:43:56;;;;;;;0.75;0.30;;;;;;;2.39;52.84;98257.06;6093645;23;20038;-79
2022/10/31 01:46:31;;;;;;;2.47;0.40;;;;;;;2.36;53.10;98251.94;6113782;23;20045;-80
2022/10/31 01:49:00;;;;;;;0.40;0.40;;;;;;;2.43;52.93;98270.75;6064204;23;20025;-79
2022/10/31 01:51:30;;;;;;;0.70;0.50;;;;;;;2.34;53.42;98254.47;6085350;23;20127;-80
2022/10/31 01:54:01;;;;;;;1.25;0.40;;;;;;;2.23;53.42;98235.66;6081146;23;20025;-78
2022/10/31 01:56:27;;;;;;;0.63;0.38;;;;;;;2.29;53.37;98260.47;6098516;23;20019;-79
2022/10/31 01:58:56;;;;;;;1.38;0.50;;;;;;;2.35;53.49;98271.59;6053121;23;20022;-78
2022/10/31 02:01:23;;;;;;;1.08;0.40;;;;;;;2.23;53.95;98258.78;6077481;23;20022;-79
2022/10/31 02:03:49;;;;;;;0.70;0.50;;;;;;;2.37;53.46;98277.59;6077483;23;20018;-79
2022/10/31 02:06:31;;;;;;;0.88;0.70;;;;;;;2.05;53.49;98231.38;6052122;23;20014;-80
2022/10/31 02:09:00;;;;;;;1.27;0.30;;;;;;;1.98;54.24;98234.81;6086390;23;20050;-78
2022/10/31 02:11:28;;;;;;;0.65;0.43;;;;;;;2.13;53.76;98262.19;6052285;23;20049;-79
2022/10/31 02:13:54;;;;;;;0.90;0.47;;;;;;;2.14;54.51;98280.16;6052714;23;20022;-80
2022/10/31 02:16:42;;;;;;;1.48;0.50;;;;;;;1.83;54.35;98251.88;6041756;23;20018;-80
2022/10/31 02:19:11;;;;;;;4.13;0.70;;;;;;;1.90;55.19;98279.28;6064053;23;20018;-79
2022/10/31 02:21:49;;;;;;;5.93;0.65;;;;;;;2.02;55.65;98287.81;6067619;23;20056;-79
2022/10/31 02:24:25;;;;;;;0.52;0.40;;;;;;;2.03;56.12;98280.16;6097391;23;20022;-79
2022/10/31 02:27:08;;;;;;;3.25;0.40;;;;;;;1.95;56.43;98262.19;6070063;23;20033;-80
2022/10/31 02:30:05;;;;;;;0.80;0.40;;;;;;;2.11;56.63;98282.72;6097687;23;20022;-79
2022/10/31 02:32:46;;;;;;;4.63;0.50;;;;;;;2.07;56.68;98286.13;6087059;23;20011;-78
2022/10/31 02:35:31;;;;;;;0.80;0.60;;;;;;;2.06;57.20;98287.84;6074938;23;20023;-80
2022/10/31 02:38:09;;;;;;;2.42;0.50;;;;;;;2.09;57.28;98282.72;6088702;23;20026;-79
2022/10/31 02:40:47;;;;;;;2.15;0.60;;;;;;;1.99;57.74;98270.72;6097543;23;20034;-78
2022/10/31 02:43:43;;;;;;;0.68;0.40;;;;;;;2.01;57.72;98291.25;6072096;23;20045;-79
2022/10/31 02:46:28;;;;;;;0.98;0.40;;;;;;;2.00;58.06;98282.72;6048107;23;20018;-78
2022/10/31 02:49:00;;;;;;;1.55;0.70;;;;;;;1.73;58.25;98242.47;6046682;23;20037;-78
2022/10/31 02:51:27;;;;;;;0.70;0.55;;;;;;;1.75;59.05;98258.72;6071191;23;20022;-78
2022/10/31 02:53:52;;;;;;;0.82;0.50;;;;;;;1.99;58.69;98291.25;6070781;23;20452;-80
2022/10/31 02:56:19;;;;;;;0.90;0.80;;;;;;;1.89;59.19;98264.72;6075190;23;20022;-78
2022/10/31 02:58:56;;;;;;;1.65;0.50;;;;;;;1.98;59.14;98275.88;6074037;23;20481;-79
2022/10/31 03:01:50;;;;;;;0.70;0.50;;;;;;;2.05;59.74;98286.13;6070571;23;20046;-79
2022/10/31 03:04:42;;;;;;;1.05;0.70;;;;;;;1.86;59.90;98264.72;6047331;23;20457;-80
2022/10/31 03:07:20;;;;;;;1.88;1.30;;;;;;;1.86;59.94;98253.63;6033634;23;20460;-79
2022/10/31 03:10:03;;;;;;;2.55;0.70;;;;;;;2.05;60.87;98291.28;6069321;23;20019;-79
2022/10/31 03:12:37;;;;;;;1.00;0.52;;;;;;;1.79;60.47;98242.47;6024101;23;20025;-80
2022/10/31 03:15:15;;;;;;;0.90;0.50;;;;;;;2.05;60.29;98283.56;6046895;23;20077;-78
2022/10/31 03:17:50;;;;;;;1.08;0.70;;;;;;;1.88;60.60;98290.38;6071701;23;20701;-80
2022/10/31 03:20:22;;;;;;;1.33;0.60;;;;;;;1.68;61.17;98264.69;6047803;23;20102;-78
2022/10/31 03:22:48;;;;;;;1.02;0.70;;;;;;;1.60;61.29;98255.25;6096089;23;20018;-80
2022/10/31 03:25:16;;;;;;;0.68;0.50;;;;;;;1.74;61.82;98264.72;6070756;23;20053;-81
2022/10/31 03:27:45;;;;;;;2.03;0.55;;;;;;;1.80;61.80;98268.13;6071007;23;20306;-78
2022/10/31 03:30:12;;;;;;;2.45;0.80;;;;;;;1.85;62.07;98272.44;6023489;23;20029;-83
2022/10/31 03:32:55;;;;;;;0.75;0.50;;;;;;;1.76;62.03;98268.13;6075951;23;20050;-80
2022/10/31 03:35:24;;;;;;;3.47;0.77;;;;;;;1.90;61.93;98286.97;6057103;23;20022;-78
2022/10/31 03:37:53;;;;;;;0.85;0.57;;;;;;;1.76;62.34;98286.09;6056300;23;20025;-78
2022/10/31 03:40:23;;;;;;;1.98;0.50;;;;;;;1.85;62.25;98288.66;6057156;23;20018;-80
2022/10/31 03:42:57;;;;;;;1.20;0.80;;;;;;;1.64;62.35;98261.28;6071804;23;20464;-79
2022/10/31 03:45:26;;;;;;;1.65;0.60;;;;;;;1.74;62.80;98288.63;6046502;23;20337;-81
2022/10/31 03:47:54;;;;;;;1.30;0.60;;;;;;;1.65;62.66;98273.25;6094452;23;20014;-80
2022/10/31 03:50:23;;;;;;;0.70;0.60;;;;;;;1.68;63.03;98280.06;6070278;23;20033;-81
2022/10/31 03:53:03;;;;;;;1.60;0.60;;;;;;;1.79;63.06;98296.34;6047119;23;20352;-80
2022/10/31 03:55:51;;;;;;;1.15;0.60;;;;;;;1.81;63.03;98302.31;6099533;23;20045;-82
2022/10/31 03:58:25;;;;;;;1.80;0.70;;;;;;;1.63;62.96;98273.22;6026371;23;20018;-81
2022/10/31 04:00:55;;;;;;;1.02;0.65;;;;;;;1.78;63.02;98299.75;6053776;23;20018;-81
2022/10/31 04:03:28;;;;;;;1.48;0.70;;;;;;;1.80;63.26;98301.50;6050438;23;20065;-82
2022/10/31 04:06:00;;;;;;;1.73;0.70;;;;;;;1.84;63.24;98306.63;6050754;23;20042;-82
2022/10/31 04:08:35;;;;;;;3.17;1.00;;;;;;;1.84;62.83;98314.31;6072880;23;20014;-82
2022/10/31 04:11:04;;;;;;;1.52;0.90;;;;;;;1.88;63.13;98308.31;6073113;23;20456;-83
2022/10/31 04:13:35;;;;;;;2.83;0.90;;;;;;;1.39;63.30;98227.00;6048570;23;20019;-84
2022/10/31 04:16:08;;;;;;;1.02;0.80;;;;;;;1.68;63.04;98288.59;6072287;23;20045;-81
2022/10/31 04:18:34;;;;;;;2.55;0.70;;;;;;;1.50;63.08;98276.63;6071811;23;20046;-79
2022/10/31 04:21:07;;;;;;;1.48;0.77;;;;;;;1.59;63.26;98299.69;6049490;23;20045;-81
2022/10/31 04:23:35;;;;;;;1.15;0.70;;;;;;;1.46;63.00;98274.88;6048204;23;20018;-84
2022/10/31 04:26:13;;;;;;;3.50;0.80;;;;;;;1.14;63.38;98234.59;6072235;23;20022;-83
2022/10/31 04:28:41;;;;;;;1.65;0.65;;;;;;;1.67;62.76;98329.66;6025612;23;20356;-82
2022/10/31 04:31:10;;;;;;;2.17;0.75;;;;;;;0.69;63.52;98193.41;6097837;23;20109;-80
2022/10/31 04:33:37;;;;;;;3.10;0.80;;;;;;;1.11;63.60;98248.25;6072435;23;20022;-81
2022/10/31 04:36:04;;;;;;;1.30;0.70;;;;;;;1.71;63.83;98339.06;6024207;23;20104;-80
2022/10/31 04:38:31;;;;;;;0.60;0.60;;;;;;;0.97;63.63;98199.53;6048144;23;20018;-80
2022/10/31 04:40:57;;;;;;;3.35;0.77;;;;;;;1.48;63.54;98297.09;6025014;23;20436;-80
2022/10/31 04:43:53;;;;;;;4.10;1.00;;;;;;;1.48;63.89;98299.66;6056658;23;20022;-80
2022/10/31 04:47:09;;;;;;;2.13;0.80;;;;;;;1.03;63.68;98224.31;6071082;23;20041;-81
2022/10/31 04:49:35;;;;;;;1.48;0.60;;;;;;;1.44;63.67;98287.69;6068192;23;20014;-82
2022/10/31 04:52:01;;;;;;;1.92;0.70;;;;;;;1.71;64.13;98332.22;6080640;23;20356;-78
2022/10/31 04:54:27;;;;;;;1.48;0.75;;;;;;;1.60;63.75;98308.25;6047619;23;20026;-80
2022/10/31 04:57:12;;;;;;;0.63;0.63;;;;;;;1.63;63.92;98323.66;6077429;23;20022;-81
2022/10/31 04:59:38;;;;;;;2.42;0.60;;;;;;;1.80;64.08;98341.66;6047768;23;20049;-80
2022/10/31 05:02:04;;;;;;;2.80;0.65;;;;;;;1.85;63.97;98347.66;6027525;23;20460;-81
2022/10/31 05:04:53;;;;;;;1.80;1.10;;;;;;;1.90;63.95;98363.06;6079940;23;20111;-83
2022/10/31 05:07:22;;;;;;;1.70;1.10;;;;;;;1.68;63.97;98310.84;6026435;23;20364;-82
2022/10/31 05:09:49;;;;;;;1.42;0.70;;;;;;;1.33;64.32;98243.22;6047591;23;20073;-80
2022/10/31 05:12:17;;;;;;;1.30;0.68;;;;;;;1.43;64.18;98273.19;6071761;23;20252;-80
2022/10/31 05:15:01;;;;;;;1.63;0.70;;;;;;;1.88;64.26;98328.84;6071655;23;20077;-80
2022/10/31 05:17:53;;;;;;;;;;;;;;;2.12;64.21;98364.00;6093173;23;20021;-83
2022/10/31 05:20:43;;;;;;;1.70;0.80;;;;;;;1.94;64.42;98334.00;6030748;23;19940;-82
2022/10/31 05:23:25;;;;;;;1.13;0.57;;;;;;;2.09;64.37;98352.03;6047078;23;20464;-82
2022/10/31 05:25:51;;;;;;;2.17;0.80;;;;;;;1.86;64.03;98321.16;6048168;23;20436;-83
2022/10/31 05:28:17;;;;;;;3.03;0.93;;;;;;;1.53;63.49;98286.88;6049570;23;20018;-80
2022/10/31 05:30:43;;;;;;;2.17;1.02;;;;;;;2.05;64.07;98393.91;6048708;23;20049;-82
2022/10/31 05:33:13;;;;;;;1.40;0.70;;;;;;;1.71;64.39;98336.50;6025310;23;20444;-80
2022/10/31 05:35:57;;;;;;;1.15;0.85;;;;;;;1.93;64.35;98373.34;6071855;23;20033;-80
2022/10/31 05:38:30;;;;;;;1.13;0.80;;;;;;;1.89;64.36;98377.63;6075420;23;20022;-81
2022/10/31 05:41:01;;;;;;;1.48;0.80;;;;;;;1.82;64.23;98347.66;6051209;23;20022;-82
2022/10/31 05:43:30;;;;;;;3.13;0.82;;;;;;;2.21;64.49;98399.94;6049370;23;20070;-82
2022/10/31 05:45:56;;;;;;;1.77;0.93;;;;;;;2.28;64.47;98403.38;6078406;23;20070;-81
2022/10/31 05:48:41;;;;;;;4.13;0.85;;;;;;;2.20;63.95;98405.94;6071030;23;20022;-82
2022/10/31 05:51:27;;;;;;;1.85;0.88;;;;;;;2.03;63.83;98379.34;6017127;23;20109;-82
2022/10/31 05:53:53;;;;;;;1.25;0.70;;;;;;;2.33;64.09;98418.78;6071448;23;20029;-82
2022/10/31 05:56:21;;;;;;;0.85;0.75;;;;;;;2.33;63.94;98416.22;6071551;23;20022;-83
2022/10/31 05:58:47;;;;;;;2.28;0.70;;;;;;;2.11;64.10;98381.09;6023885;23;20097;-83
2022/10/31 06:01:13;;;;;;;2.65;0.65;;;;;;;2.43;63.58;98440.22;6078030;23;20045;-80
2022/10/31 06:03:39;;;;;;;0.77;0.77;;;;;;;2.48;63.83;98431.66;6081934;23;20029;-80
2022/10/31 06:06:09;;;;;;;1.15;0.57;;;;;;;2.38;64.04;98412.81;6028019;23;20026;-82
2022/10/31 06:08:40;;;;;;;1.63;0.77;;;;;;;2.58;63.79;98436.81;6049971;23;20101;-81
2022/10/31 06:11:12;;;;;;;1.98;0.82;;;;;;;2.50;63.67;98416.28;6071512;23;20106;-86
2022/10/31 06:13:57;;;;;;;1.13;0.77;;;;;;;2.21;63.56;98381.13;6076341;23;20440;-82
2022/10/31 06:16:33;;;;;;;1.15;0.80;;;;;;;2.68;63.67;98444.53;6071582;23;20029;-82
2022/10/31 06:19:15;;;;;;;;;;;;;;;2.81;63.12;98462.53;6072856;23;20021;-85
2022/10/31 06:21:41;;;;;;;1.63;1.00;;;;;;;2.76;62.37;98474.53;6048807;23;19937;-84
2022/10/31 06:24:08;;;;;;;1.08;0.70;;;;;;;2.22;62.95;98388.81;6102138;23;20018;-84
2022/10/31 06:26:52;;;;;;;1.38;0.68;;;;;;;2.83;63.22;98483.94;6095606;23;20046;-79
2022/10/31 06:29:19;;;;;;;0.98;0.70;;;;;;;2.56;63.45;98450.53;6067224;23;20018;-84
2022/10/31 06:32:00;;;;;;;2.05;0.80;;;;;;;2.59;62.86;98456.53;6066026;23;20018;-80
2022/10/31 06:34:49;;;;;;;1.42;0.90;;;;;;;2.96;63.24;98501.13;6109832;23;20093;-83
2022/10/31 06:37:16;;;;;;;2.20;1.10;;;;;;;2.57;63.29;98428.25;6099974;23;20049;-83
2022/10/31 06:39:45;;;;;;;2.22;0.85;;;;;;;1.75;62.68;98315.16;6051260;23;20068;-81
2022/10/31 06:42:15;;;;;;;1.15;0.73;;;;;;;2.98;62.77;98509.66;6073339;23;20025;-84
2022/10/31 06:44:42;;;;;;;2.55;1.00;;;;;;;2.81;63.08;98477.94;6048977;23;20425;-80
2022/10/31 06:47:29;;;;;;;3.38;1.60;;;;;;;3.10;63.13;98508.81;6101797;23;20025;-82
2022/10/31 06:50:06;;;;;;;1.40;1.00;;;;;;;2.87;62.93;98477.97;6049606;23;20113;-80
2022/10/31 06:52:32;;;;;;;1.52;0.82;;;;;;;2.60;63.00;98443.66;6048686;23;20412;-82
2022/10/31 06:54:58;;;;;;;4.45;1.40;;;;;;;2.93;63.08;98490.81;6072670;23;20346;-81
2022/10/31 06:57:25;;;;;;;1.75;1.15;;;;;;;3.00;63.10;98500.22;6072743;23;20018;-79
2022/10/31 06:59:51;;;;;;;1.90;1.27;;;;;;;3.43;63.02;98543.13;6072485;23;20014;-82
2022/10/31 07:02:37;;;;;;;2.55;1.30;;;;;;;3.39;63.48;98536.25;6077890;23;20045;-81
2022/10/31 07:05:07;;;;;;;2.03;1.30;;;;;;;3.55;63.02;98554.25;6048987;23;20018;-78
2022/10/31 07:07:34;;;;;;;1.38;1.10;;;;;;;3.08;63.14;98469.41;6072766;23;20441;-82
2022/10/31 07:10:02;;;;;;;3.63;1.20;;;;;;;3.33;63.00;98505.38;6049001;23;20037;-81
2022/10/31 07:13:00;;;;;;;2.00;1.20;;;;;;;3.75;63.02;98569.69;6033925;23;20104;-81
2022/10/31 07:15:30;;;;;;;2.67;1.92;;;;;;;3.30;62.83;98479.69;6059518;23;20486;-83
2022/10/31 07:18:03;;;;;;;2.35;1.50;;;;;;;3.24;62.67;98457.41;6076550;23;20506;-83
2022/10/31 07:21:04;;;;;;;1.20;1.10;;;;;;;2.86;62.13;98379.47;6058641;23;20022;-84
2022/10/31 07:23:33;;;;;;;1.98;1.10;;;;;;;3.70;62.22;98505.38;6050391;23;20018;-83
2022/10/31 07:26:48;;;;;;;4.85;1.33;;;;;;;4.20;62.06;98603.06;6100849;23;20038;-80
2022/10/31 07:29:15;;;;;;;2.80;1.15;;;;;;;3.73;62.14;98515.66;6035672;23;20021;-80
2022/10/31 07:31:46;;;;;;;2.30;1.48;;;;;;;3.91;61.22;98566.22;6033052;23;20069;-80
2022/10/31 07:34:18;;;;;;;3.50;1.23;;;;;;;3.78;61.90;98549.09;6052090;23;20069;-81
2022/10/31 07:37:17;;;;;;;3.63;1.60;;;;;;;3.18;62.35;98442.00;6058094;23;20018;-83
2022/10/31 07:39:49;;;;;;;2.97;1.00;;;;;;;4.33;61.48;98624.50;6027671;23;20018;-83
2022/10/31 07:43:22;;;;;;;;;;;;;;;;;;;;;
2022/10/31 07:51:41;;;;;;;;;;;;;;;;;;;;;
2022/10/31 07:54:32;;;;;;;3.63;1.10;;;;;;;4.60;61.39;98684.56;5948136;24;20037;-82
2022/10/31 07:57:19;;;;;;;5.57;2.72;;;;;;;3.43;60.20;98503.66;6071622;23;20029;-80
2022/10/31 08:04:15;;;;;;;4.43;1.30;;;;;;;3.84;60.94;98497.63;5883040;24;20055;-83
2022/10/31 08:07:25;;;;;;;6.25;1.55;;;;;;;4.51;60.77;98588.41;5966267;23;20018;-81
2022/10/31 08:10:40;;;;;;;2.63;1.30;;;;;;;5.36;60.11;98654.16;6053775;23;20054;-80
2022/10/31 08:13:43;;;;;;;;;;;;;;;;;;;;;
2022/10/31 08:16:25;;;;;;;3.70;1.48;;;;;;;7.17;59.73;98718.84;6009997;23;20102;-80
2022/10/31 08:19:20;;;;;;;4.88;1.67;;;;;;;6.94;58.26;98618.25;6077428;23;20021;-86
2022/10/31 08:22:32;;;;;;;3.20;1.70;;;;;;;8.71;58.40;98642.22;6074979;23;20018;-79
2022/10/31 08:25:18;;;;;;;4.97;1.73;;;;;;;9.49;54.99;98659.56;6080643;23;20484;-83
2022/10/31 08:27:49;;;;;;;3.70;1.95;;;;;;;9.44;54.30;98687.41;6032939;23;20019;-81
2022/10/31 08:30:59;;;;;;;3.38;1.40;;;;;;;8.54;53.25;98615.72;6072070;23;20044;-81
2022/10/31 08:34:09;;;;;;;4.70;1.80;;;;;;;8.48;53.44;98680.66;6073836;23;20025;-83
2022/10/31 08:37:26;;;;;;;4.32;1.95;;;;;;;7.50;52.81;98600.22;6008922;23;20044;-81
2022/10/31 08:40:09;;;;;;;2.95;1.50;;;;;;;7.92;53.53;98710.94;6022574;23;20090;-82
2022/10/31 08:42:36;;;;;;;4.32;1.60;;;;;;;7.88;53.14;98721.34;6103499;23;20014;-82
2022/10/31 08:45:32;;;;;;;2.67;1.73;;;;;;;7.99;52.63;98768.69;6076294;23;20018;-84
2022/10/31 08:48:17;;;;;;;1.35;1.00;;;;;;;7.00;52.60;98620.78;6048627;23;20014;-81
2022/10/31 08:50:47;;;;;;;1.75;1.10;;;;;;;7.47;52.24;98726.25;6075041;23;20050;-82
2022/10/31 08:53:18;;;;;;;2.85;0.80;;;;;;;7.09;52.19;98713.75;6073222;23;20170;-78
2022/10/31 08:55:56;;;;;;;1.48;0.95;;;;;;;7.29;52.89;98786.88;6075715;23;20023;-81
2022/10/31 08:58:25;;;;;;;1.40;0.77;;;;;;;6.69;52.75;98728.91;6049554;23;20018;-80
2022/10/31 09:01:01;;;;;;;2.60;0.95;;;;;;;6.06;52.34;98676.06;6050025;23;20053;-81
2022/10/31 09:03:30;;;;;;;0.93;0.80;;;;;;;6.23;52.94;98746.53;6073315;23;20022;-80
2022/10/31 09:06:02;;;;;;;1.35;0.80;;;;;;;5.21;53.63;98592.31;6050012;23;20026;-82
2022/10/31 09:08:30;;;;;;;;;;;;;;;6.56;53.68;98809.13;6074385;23;20058;-82
2022/10/31 09:11:01;;;;;;;1.90;0.95;;;;;;;6.18;53.65;98709.53;6049780;23;19917;-82
2022/10/31 09:13:52;;;;;;;3.35;1.08;;;;;;;7.65;54.86;98800.22;6078886;23;20471;-83
2022/10/31 09:16:33;;;;;;;2.17;0.98;;;;;;;8.06;52.88;98748.72;6075353;23;20029;-80
2022/10/31 09:19:11;;;;;;;1.25;0.88;;;;;;;7.99;52.14;98727.25;6052204;23;20023;-82
2022/10/31 09:25:45;;;;;;;2.00;1.20;;;;;;;8.09;51.37;98821.22;6100152;23;20476;-83
2022/10/31 09:28:32;;;;;;;1.75;1.20;;;;;;;7.82;51.16;98831.97;6078482;23;20539;-83
2022/10/31 09:31:04;;;;;;;2.38;1.48;;;;;;;6.85;51.49;98724.38;6074654;23;20022;-81
2022/10/31 09:33:53;;;;;;;2.53;1.40;;;;;;;6.65;51.58;98722.03;6077517;23;20018;-82
2022/10/31 09:36:38;;;;;;;1.67;1.40;;;;;;;6.89;51.81;98839.88;6073586;23;20014;-83
2022/10/31 09:39:09;;;;;;;1.77;1.17;;;;;;;6.75;51.59;98848.63;6079753;23;20018;-79
2022/10/31 09:41:42;;;;;;;2.28;1.05;;;;;;;6.51;51.95;98839.31;6072822;23;20150;-81
2022/10/31 09:44:44;;;;;;;1.63;1.20;;;;;;;5.61;51.65;98731.44;6049711;23;20022;-82
2022/10/31 09:47:57;;;;;;;4.93;1.20;;;;;;;6.42;52.00;98852.31;6073330;23;20456;-82
2022/10/31 09:50:38;;;;;;;2.85;1.70;;;;;;;6.44;51.09;98853.19;6074511;23;20472;-82
2022/10/31 09:53:49;;;;;;;3.33;1.35;;;;;;;5.81;52.01;98759.69;6099100;23;20018;-81
2022/10/31 09:56:22;;;;;;;2.50;1.30;;;;;;;6.36;51.62;98858.41;6026833;23;20018;-84
2022/10/31 09:58:55;;;;;;;1.70;1.08;;;;;;;5.32;51.38;98696.31;6049615;23;20022;-81
2022/10/31 10:05:52;;;;;;;1.40;1.20;;;;;;;6.10;51.36;98848.22;5947924;24;20032;-80
2022/10/31 10:08:33;;;;;;;2.70;1.50;;;;;;;6.27;51.52;98904.97;5945243;24;20031;-81
2022/10/31 10:12:01;;;;;;;1.38;1.00;;;;;;;6.31;51.49;98898.91;5987998;23;20096;-79
2022/10/31 10:14:52;;;;;;;2.83;1.83;;;;;;;6.42;51.46;98912.59;6053113;23;20010;-79
2022/10/31 10:17:31;;;;;;;1.38;0.90;;;;;;;6.48;51.05;98943.59;6102922;23;20018;-80
2022/10/31 10:20:09;;;;;;;3.53;1.50;;;;;;;6.06;50.73;98852.53;6073358;23;20022;-82
2022/10/31 10:22:40;;;;;;;1.88;1.40;;;;;;;6.48;50.99;98927.25;6026049;23;20088;-80
2022/10/31 10:25:39;;;;;;;1.35;1.10;;;;;;;6.44;50.89;98941.03;6075574;23;20030;-82
2022/10/31 10:32:42;;;;;;;1.00;0.80;;;;;;;5.48;50.59;98849.34;6056317;23;20018;-84
2022/10/31 10:39:41;;;;;;;1.75;1.20;;;;;;;6.11;50.75;98906.75;6058004;23;20022;-82
2022/10/31 10:48:31;;;;;;;1.08;0.90;;;;;;;6.41;51.23;98936.72;6104609;23;20021;-81
2022/10/31 10:51:01;;;;;;;5.28;0.98;;;;;;;6.70;51.04;98981.41;6055680;23;20026;-80
2022/10/31 10:54:01;;;;;;;3.00;0.95;;;;;;;6.60;50.60;98953.00;6106481;23;20022;-79
2022/10/31 10:56:33;;;;;;;1.77;0.80;;;;;;;6.90;51.04;98981.25;6081021;23;20219;-81
2022/10/31 10:59:03;;;;;;;;;;;;;;;6.88;51.18;98975.22;6039938;23;20021;-80
2022/10/31 11:01:29;;;;;;;1.20;1.00;;;;;;;6.76;50.68;98961.53;6118470;23;19919;-79
2022/10/31 11:03:56;;;;;;;2.65;1.08;;;;;;;6.71;50.81;98980.53;6120327;23;20030;-81
2022/10/31 11:06:25;;;;;;;3.38;1.48;;;;;;;6.68;51.02;98975.38;6119417;23;20044;-82
2022/10/31 11:08:52;;;;;;;2.00;1.25;;;;;;;6.43;51.20;98972.94;6071307;23;20053;-79
2022/10/31 11:11:29;;;;;;;0.70;0.70;;;;;;;6.35;51.30;98964.34;6120944;23;20022;-80
2022/10/31 11:14:13;;;;;;;1.25;0.52;;;;;;;6.38;51.35;98978.13;6034998;23;20431;-84
2022/10/31 11:16:54;;;;;;;0.55;0.50;;;;;;;6.29;52.13;98970.41;6075167;23;20041;-81
2022/10/31 11:19:29;;;;;;;0.73;0.50;;;;;;;5.83;51.83;98912.88;6073552;23;20093;-80
2022/10/31 11:22:07;;;;;;;1.00;0.68;;;;;;;6.13;52.25;98941.19;6073213;23;20069;-80
2022/10/31 11:24:40;;;;;;;0.93;0.50;;;;;;;6.05;51.65;98964.47;6049640;23;20026;-80
2022/10/31 11:27:30;;;;;;;0.80;0.60;;;;;;;5.99;52.10;98978.25;6050065;23;20464;-79
2022/10/31 11:30:06;;;;;;;0.75;0.60;;;;;;;5.93;52.37;98970.50;6014187;23;20021;-80
2022/10/31 11:32:35;;;;;;;0.80;0.63;;;;;;;5.66;52.09;98950.81;6102343;23;20101;-84
2022/10/31 11:35:26;;;;;;;3.60;0.80;;;;;;;4.72;51.85;98795.38;6078222;23;20472;-81
2022/10/31 11:42:08;;;;;;;1.10;0.70;;;;;;;4.25;51.94;98732.69;6019773;23;20022;-82
2022/10/31 11:45:33;;;;;;;0.90;0.60;;;;;;;4.59;52.65;98819.41;6071434;23;20018;-80
2022/10/31 11:48:39;;;;;;;0.65;0.60;;;;;;;5.57;52.14;98992.97;6071297;23;20018;-80
2022/10/31 11:51:05;;;;;;;0.88;0.60;;;;;;;5.48;52.67;98995.56;6071212;23;20022;-82
2022/10/31 11:54:10;;;;;;;1.10;0.75;;;;;;;4.88;53.33;98913.91;6047165;23;20018;-81
2022/10/31 11:56:41;;;;;;;6.03;2.10;;;;;;;4.51;52.84;98868.38;6097437;23;20018;-81
2022/10/31 11:59:26;;;;;;;1.45;1.10;;;;;;;5.19;53.34;98980.94;6048100;23;20504;-80
2022/10/31 12:01:54;;;;;;;2.55;1.30;;;;;;;5.31;53.56;99016.19;6047626;23;20069;-80
2022/10/31 12:04:31;;;;;;;0.85;0.68;;;;;;;5.26;53.61;99009.34;6070770;23;20126;-82
2022/10/31 12:06:57;;;;;;;1.77;0.80;;;;;;;4.87;53.72;98972.34;6095801;23;20082;-82
2022/10/31 12:09:32;;;;;;;0.68;0.63;;;;;;;4.80;53.94;98976.63;6071294;23;20041;-81
2022/10/31 12:12:07;;;;;;;0.98;0.77;;;;;;;4.98;54.08;99019.63;6026542;23;20164;-81
2022/10/31 12:14:33;;;;;;;1.52;0.88;;;;;;;4.93;54.57;99029.06;6048709;23;20018;-80
2022/10/31 12:17:02;;;;;;;1.30;0.85;;;;;;;4.87;55.03;99029.06;6079813;23;20356;-84
2022/10/31 12:19:31;;;;;;;0.70;0.70;;;;;;;4.90;54.41;99017.91;6081643;23;20432;-84
2022/10/31 12:22:16;;;;;;;1.98;1.20;;;;;;;4.97;54.54;99029.94;6028259;23;20514;-82
2022/10/31 12:25:22;;;;;;;1.30;0.82;;;;;;;4.73;54.79;99008.44;6099161;23;20049;-83
2022/10/31 12:28:16;;;;;;;1.20;0.75;;;;;;;3.70;55.43;98828.72;6051148;23;20500;-80
2022/10/31 12:31:19;;;;;;;1.20;0.80;;;;;;;4.69;54.80;98993.81;6051375;23;20026;-80
2022/10/31 12:34:04;;;;;;;4.40;1.00;;;;;;;4.99;55.27;99043.69;6051357;23;20054;-78
2022/10/31 12:37:01;;;;;;;1.77;0.82;;;;;;;5.04;54.80;99036.81;6048645;23;20381;-80
2022/10/31 12:40:21;;;;;;;2.05;0.90;;;;;;;3.67;55.13;98836.41;6027643;23;20105;-80
2022/10/31 12:47:28;;;;;;;2.50;1.42;;;;;;;4.86;55.33;99050.53;5828392;24;20423;-81
2022/10/31 12:58:36;;;;;;;0.90;0.80;;;;;;;4.39;56.09;99035.81;5857547;24;20363;-80
2022/10/31 13:05:42;;;;;;;2.13;0.82;;;;;;;3.43;57.21;98905.78;5951959;24;20024;-82
2022/10/31 13:08:40;;;;;;;3.00;0.90;;;;;;;3.09;57.22;98827.56;6097183;23;20014;-82
2022/10/31 13:11:37;;;;;;;1.15;0.80;;;;;;;4.42;58.26;99059.84;5903104;23;2945523;-80
2022/10/31 13:14:59;;;;;;;1.27;0.82;;;;;;;4.43;57.89;99059.00;6073887;23;20277;-81
2022/10/31 13:18:29;;;;;;;2.40;1.02;;;;;;;4.04;57.99;99006.47;5990287;23;20022;-82
2022/10/31 13:21:20;;;;;;;1.35;0.77;;;;;;;3.59;58.87;98921.28;6082702;23;20105;-81
2022/10/31 13:24:57;;;;;;;;;;;;;;;;;;;;;
2022/10/31 13:28:24;;;;;;;1.13;0.93;;;;;;;4.43;58.65;99069.31;5889285;24;20471;-81
2022/10/31 13:34:22;;;;;;;2.53;1.10;;;;;;;3.74;58.71;98947.13;5942924;24;20359;-80
2022/10/31 13:37:12;;;;;;;1.95;1.00;;;;;;;4.58;59.00;99080.53;5953688;24;20366;-83